createdAt,value
2018-03-27T00:02:27.242Z,30.35
2018-03-27T00:05:00.856Z,29.77
2018-03-27T00:07:34.438Z,29.58
2018-03-27T00:10:08.178Z,29.33
2018-03-27T00:12:42.477Z,27.73
2018-03-27T00:15:16.111Z,28.98
2018-03-27T00:17:49.693Z,28.40
2018-03-27T00:20:23.242Z,27.42
2018-03-27T00:22:56.786Z,28.77
2018-03-27T00:25:30.404Z,28.83
2018-03-27T00:28:16.029Z,28.27
2018-03-27T00:31:01.501Z,29.45
2018-03-27T00:33:47.107Z,30.23
2018-03-27T00:36:33.342Z,28.75
2018-03-27T00:39:18.979Z,29.45
2018-03-27T00:55:19.736Z,27.45
2018-03-27T00:57:53.458Z,32.35
2018-03-27T01:00:26.993Z,29.23
2018-03-27T01:03:00.742Z,29.45
2018-03-27T01:05:34.339Z,27.37
2018-03-27T01:08:07.908Z,30.23
2018-03-27T01:10:41.629Z,29.87
2018-03-27T01:13:15.166Z,29.60
2018-03-27T01:15:48.751Z,30.33
2018-03-27T01:18:22.318Z,28.48
2018-03-27T01:20:55.867Z,28.92
2018-03-27T01:23:29.502Z,29.02
2018-03-27T01:26:03.132Z,28.60
2018-03-27T01:28:36.734Z,31.37
2018-03-27T01:31:10.334Z,29.12
2018-03-27T01:33:43.867Z,29.80
2018-03-27T01:36:18.205Z,30.05
2018-03-27T01:38:51.836Z,30.00
2018-03-27T01:41:25.407Z,29.65
2018-03-27T01:43:59.781Z,30.98
2018-03-27T01:46:34.107Z,30.02
2018-03-27T01:49:08.519Z,27.92
2018-03-27T01:51:42.221Z,28.40
2018-03-27T01:54:15.958Z,31.90
2018-03-27T01:56:50.119Z,27.80
2018-03-27T01:59:23.811Z,28.00
2018-03-27T02:01:58.149Z,29.42
2018-03-27T02:04:32.669Z,29.33
2018-03-27T02:07:06.264Z,29.73
2018-03-27T02:09:40.529Z,27.20
2018-03-27T02:12:19.926Z,27.02
2018-03-27T02:14:59.274Z,29.15
2018-03-27T02:17:38.690Z,28.90
2018-03-27T02:20:18.864Z,30.10
2018-03-27T02:22:53.226Z,30.40
2018-03-27T02:25:26.911Z,29.10
2018-03-27T02:28:00.650Z,30.55
2018-03-27T02:30:34.267Z,28.40
2018-03-27T02:33:08.601Z,30.27
2018-03-27T02:35:42.910Z,27.87
2018-03-27T02:38:16.628Z,29.45
2018-03-27T02:40:50.321Z,32.53
2018-03-27T02:43:24.042Z,30.40
2018-03-27T02:45:58.339Z,29.65
2018-03-27T02:48:32.080Z,31.23
2018-03-27T02:51:05.696Z,30.77
2018-03-27T02:53:39.439Z,29.77
2018-03-27T02:56:12.989Z,31.42
2018-03-27T02:58:46.555Z,29.90
2018-03-27T03:01:20.189Z,30.58
2018-03-27T03:03:53.762Z,29.05
2018-03-27T03:06:27.359Z,31.20
2018-03-27T03:09:00.896Z,31.35
2018-03-27T03:11:34.453Z,31.75
2018-03-27T03:14:07.980Z,31.05
2018-03-27T03:16:41.546Z,32.60
2018-03-27T03:19:15.040Z,31.80
2018-03-27T03:21:49.372Z,34.35
2018-03-27T03:24:22.888Z,31.95
2018-03-27T03:26:56.592Z,32.15
2018-03-27T03:29:30.178Z,31.77
2018-03-27T03:32:03.772Z,32.00
2018-03-27T03:34:37.377Z,31.30
2018-03-27T03:37:10.965Z,30.77
2018-03-27T03:39:44.546Z,33.33
2018-03-27T03:42:18.167Z,30.95
2018-03-27T03:44:51.821Z,30.60
2018-03-27T03:47:25.297Z,31.25
2018-03-27T03:49:58.907Z,29.92
2018-03-27T03:52:32.487Z,29.33
2018-03-27T03:55:06.791Z,29.33
2018-03-27T03:57:40.401Z,28.60
2018-03-27T04:00:13.927Z,30.00
2018-03-27T04:02:47.489Z,31.33
2018-03-27T04:05:21.067Z,28.55
2018-03-27T04:07:54.605Z,29.12
2018-03-27T04:10:28.177Z,26.90
2018-03-27T04:13:02.507Z,28.98
2018-03-27T04:15:36.212Z,28.65
2018-03-27T04:18:09.817Z,28.83
2018-03-27T04:20:44.157Z,30.10
2018-03-27T04:23:18.593Z,28.30
2018-03-27T04:25:52.973Z,27.50
2018-03-27T04:28:27.483Z,29.75
2018-03-27T04:31:01.100Z,28.17
2018-03-27T04:33:34.675Z,28.40
2018-03-27T04:36:08.196Z,27.48
2018-03-27T04:38:41.798Z,28.60
2018-03-27T04:41:15.380Z,26.10
2018-03-27T04:43:49.723Z,28.90
2018-03-27T04:46:23.539Z,29.80
2018-03-27T04:48:57.331Z,28.85
2018-03-27T04:51:31.118Z,27.90
2018-03-27T04:54:05.410Z,29.75
2018-03-27T04:56:38.982Z,29.25
2018-03-27T04:59:12.542Z,27.33
2018-03-27T05:01:46.132Z,29.58
2018-03-27T05:04:19.738Z,28.27
2018-03-27T05:06:53.346Z,29.00
2018-03-27T05:09:26.946Z,25.80
2018-03-27T05:12:00.564Z,27.58
2018-03-27T05:14:34.266Z,28.20
2018-03-27T05:17:07.815Z,28.10
2018-03-27T05:19:42.105Z,28.90
2018-03-27T05:22:15.666Z,27.80
2018-03-27T05:24:49.317Z,27.25
2018-03-27T05:27:23.074Z,25.55
2018-03-27T05:29:56.643Z,27.75
2018-03-27T05:32:30.164Z,27.48
2018-03-27T05:35:03.888Z,28.25
2018-03-27T05:37:37.473Z,28.67
2018-03-27T05:40:11.058Z,24.70
2018-03-27T05:42:44.563Z,27.90
2018-03-27T05:45:18.885Z,27.50
2018-03-27T05:47:53.407Z,25.95
2018-03-27T05:50:27.002Z,24.42
2018-03-27T05:53:00.758Z,24.73
2018-03-27T05:55:34.311Z,24.75
2018-03-27T05:58:07.878Z,25.25
2018-03-27T06:00:42.333Z,24.70
2018-03-27T06:03:15.882Z,22.15
2018-03-27T06:05:50.771Z,23.45
2018-03-27T06:08:24.371Z,23.12
2018-03-27T06:10:57.991Z,24.33
2018-03-27T06:13:31.570Z,23.73
2018-03-27T06:16:05.071Z,28.52
2018-03-27T06:18:38.684Z,34.17
2018-03-27T06:21:12.210Z,60.03
2018-03-27T06:23:45.757Z,27.65
2018-03-27T06:26:19.475Z,25.60
2018-03-27T06:28:53.037Z,27.23
2018-03-27T06:31:26.573Z,27.10
2018-03-27T06:34:00.093Z,25.42
2018-03-27T06:36:33.762Z,24.63
2018-03-27T06:39:08.103Z,25.77
2018-03-27T06:41:41.594Z,26.12
2018-03-27T06:44:15.370Z,24.42
2018-03-27T06:46:48.979Z,23.70
2018-03-27T06:49:22.602Z,25.25
2018-03-27T06:51:56.187Z,26.45
2018-03-27T06:54:29.791Z,29.15
2018-03-27T06:57:03.375Z,28.98
2018-03-27T06:59:37.716Z,31.45
2018-03-27T07:02:11.384Z,26.92
2018-03-27T07:04:44.899Z,28.73
2018-03-27T07:07:18.412Z,25.73
2018-03-27T07:09:51.926Z,26.30
2018-03-27T07:12:25.516Z,28.17
2018-03-27T07:14:59.114Z,29.17
2018-03-27T07:17:32.677Z,31.73
2018-03-27T07:20:06.244Z,28.65
2018-03-27T07:22:39.809Z,28.15
2018-03-27T07:25:14.125Z,24.50
2018-03-27T07:27:47.885Z,27.73
2018-03-27T07:30:21.436Z,44.55
2018-03-27T07:32:55.230Z,34.63
2018-03-27T07:35:28.771Z,33.15
2018-03-27T07:38:02.338Z,32.13
2018-03-27T07:40:35.922Z,30.77
2018-03-27T07:43:10.290Z,33.97
2018-03-27T07:45:43.966Z,34.92
2018-03-27T07:48:18.374Z,31.83
2018-03-27T07:50:52.097Z,32.17
2018-03-27T07:53:25.669Z,26.20
2018-03-27T07:56:00.007Z,30.48
2018-03-27T07:58:33.715Z,26.83
2018-03-27T08:01:07.299Z,28.83
2018-03-27T08:03:40.824Z,26.98
2018-03-27T08:06:14.400Z,26.05
2018-03-27T08:08:48.107Z,25.58
2018-03-27T08:11:21.697Z,28.90
2018-03-27T08:13:55.294Z,24.27
2018-03-27T08:16:28.856Z,34.28
2018-03-27T08:19:02.506Z,24.67
2018-03-27T08:21:36.020Z,25.95
2018-03-27T08:24:09.784Z,26.40
2018-03-27T08:26:44.014Z,25.02
2018-03-27T08:29:17.652Z,24.02
2018-03-27T08:31:51.225Z,24.55
2018-03-27T08:34:24.839Z,25.02
2018-03-27T08:36:59.229Z,24.30
2018-03-27T08:39:33.663Z,24.55
2018-03-27T08:42:07.406Z,24.20
2018-03-27T08:44:41.692Z,24.08
2018-03-27T08:47:15.383Z,23.67
2018-03-27T08:49:49.705Z,23.95
2018-03-27T08:52:23.424Z,24.33
2018-03-27T08:54:56.957Z,23.58
2018-03-27T08:57:30.602Z,23.98
2018-03-27T09:00:04.106Z,24.73
2018-03-27T09:02:37.689Z,24.35
2018-03-27T09:05:11.320Z,25.75
2018-03-27T09:07:44.886Z,24.48
2018-03-27T09:10:18.456Z,30.23
2018-03-27T09:12:52.132Z,25.40
2018-03-27T09:15:25.678Z,25.12
2018-03-27T09:17:59.348Z,26.20
2018-03-27T09:20:32.945Z,23.45
2018-03-27T09:23:06.528Z,26.48
2018-03-27T09:25:40.227Z,26.35
2018-03-27T09:28:13.831Z,26.17
2018-03-27T09:30:47.337Z,27.62
2018-03-27T09:33:21.647Z,26.65
2018-03-27T09:35:56.152Z,24.75
2018-03-27T09:38:29.759Z,26.30
2018-03-27T09:41:03.445Z,26.17
2018-03-27T09:43:37.039Z,27.55
2018-03-27T09:46:10.583Z,23.23
2018-03-27T09:48:44.159Z,21.50
2018-03-27T09:51:17.648Z,25.75
2018-03-27T09:53:51.282Z,24.33
2018-03-27T09:56:24.997Z,25.88
2018-03-27T09:58:58.658Z,22.58
2018-03-27T10:01:32.168Z,17.20
2018-03-27T10:04:06.492Z,20.70
2018-03-27T10:06:40.094Z,22.35
2018-03-27T10:09:13.687Z,20.77
2018-03-27T10:11:47.229Z,22.87
2018-03-27T10:14:20.806Z,19.60
2018-03-27T10:16:54.378Z,20.20
2018-03-27T10:19:27.927Z,19.60
2018-03-27T10:22:01.519Z,17.02
2018-03-27T10:24:35.219Z,16.58
2018-03-27T10:27:08.750Z,17.65
2018-03-27T10:29:42.265Z,17.77
2018-03-27T10:32:15.879Z,18.83
2018-03-27T10:34:49.419Z,19.92
2018-03-27T10:37:22.986Z,19.55
2018-03-27T10:39:56.586Z,17.37
2018-03-27T10:42:30.133Z,19.37
2018-03-27T10:45:03.737Z,18.52
2018-03-27T10:47:38.195Z,20.45
2018-03-27T10:50:12.281Z,19.73
2018-03-27T10:52:45.822Z,21.02
2018-03-27T10:55:19.389Z,19.15
2018-03-27T10:57:53.011Z,20.35
2018-03-27T11:00:26.603Z,18.92
2018-03-27T11:03:00.213Z,19.17
2018-03-27T11:05:33.733Z,21.02
2018-03-27T11:08:07.219Z,18.08
2018-03-27T11:10:40.856Z,17.27
2018-03-27T11:13:14.504Z,16.90
2018-03-27T11:15:48.785Z,16.20
2018-03-27T11:18:22.353Z,16.55
2018-03-27T11:20:55.889Z,14.93
2018-03-27T11:23:29.390Z,17.55
2018-03-27T11:26:03.758Z,14.05
2018-03-27T11:28:37.426Z,16.08
2018-03-27T11:31:11.763Z,16.85
2018-03-27T11:33:45.331Z,15.93
2018-03-27T11:36:18.862Z,16.12
2018-03-27T11:38:53.196Z,15.52
2018-03-27T11:41:26.890Z,14.40
2018-03-27T11:44:00.483Z,15.07
2018-03-27T11:46:34.043Z,15.02
2018-03-27T11:49:07.619Z,15.85
2018-03-27T11:51:41.161Z,16.10
2018-03-27T11:54:15.511Z,16.17
2018-03-27T11:56:49.138Z,15.30
2018-03-27T11:59:23.517Z,16.60
2018-03-27T12:01:57.372Z,15.82
2018-03-27T12:04:30.922Z,15.90
2018-03-27T12:07:04.474Z,15.75
2018-03-27T12:09:38.024Z,15.43
2018-03-27T12:12:11.638Z,17.98
2018-03-27T12:14:45.248Z,16.77
2018-03-27T12:17:18.783Z,16.00
2018-03-27T12:19:52.356Z,16.50
2018-03-27T12:22:25.955Z,15.40
2018-03-27T12:24:59.560Z,15.80
2018-03-27T12:27:33.070Z,15.82
2018-03-27T12:30:06.616Z,17.40
2018-03-27T12:32:40.155Z,17.73
2018-03-27T12:35:13.714Z,18.23
2018-03-27T12:37:48.055Z,15.63
2018-03-27T12:40:21.687Z,16.30
2018-03-27T12:42:55.245Z,14.65
2018-03-27T12:45:28.835Z,16.48
2018-03-27T12:48:02.370Z,15.55
2018-03-27T12:50:35.960Z,15.45
2018-03-27T12:53:09.539Z,15.68
2018-03-27T12:55:43.150Z,17.25
2018-03-27T12:58:16.738Z,17.20
2018-03-27T13:00:50.335Z,15.75
2018-03-27T13:03:23.974Z,15.93
2018-03-27T13:05:57.559Z,16.80
2018-03-27T13:08:31.100Z,15.90
2018-03-27T13:11:04.657Z,17.60
2018-03-27T13:13:38.256Z,16.15
2018-03-27T13:16:12.583Z,16.85
2018-03-27T13:18:47.008Z,16.23
2018-03-27T13:21:20.673Z,22.80
2018-03-27T13:23:54.418Z,13.10
2018-03-27T13:26:27.924Z,14.13
2018-03-27T13:29:02.214Z,14.82
2018-03-27T13:31:36.844Z,13.40
2018-03-27T13:34:11.152Z,13.62
2018-03-27T13:36:44.809Z,13.15
2018-03-27T13:39:18.369Z,13.25
2018-03-27T13:41:52.064Z,11.95
2018-03-27T13:44:25.654Z,12.40
2018-03-27T13:46:59.991Z,12.43
2018-03-27T13:49:33.490Z,13.07
2018-03-27T13:52:07.099Z,11.73
2018-03-27T13:54:40.610Z,10.80
2018-03-27T13:57:14.201Z,11.40
2018-03-27T13:59:47.797Z,11.85
2018-03-27T14:02:21.521Z,12.05
2018-03-27T14:04:55.806Z,11.48
2018-03-27T14:07:29.413Z,11.85
2018-03-27T14:10:03.017Z,11.77
2018-03-27T14:12:36.589Z,11.30
2018-03-27T14:15:10.915Z,11.75
2018-03-27T14:17:44.587Z,12.35
2018-03-27T14:20:18.923Z,11.20
2018-03-27T14:22:52.735Z,12.77
2018-03-27T14:25:26.371Z,11.15
2018-03-27T14:27:59.949Z,9.25
2018-03-27T14:30:33.458Z,10.82
2018-03-27T14:33:07.152Z,10.35
2018-03-27T14:35:40.744Z,10.30
2018-03-27T14:38:14.366Z,10.68
2018-03-27T14:40:48.669Z,11.25
2018-03-27T14:43:22.378Z,11.43
2018-03-27T14:45:55.887Z,11.43
2018-03-27T14:48:29.570Z,11.10
2018-03-27T14:51:03.098Z,10.77
2018-03-27T14:53:36.695Z,13.60
2018-03-27T14:56:10.241Z,11.63
2018-03-27T14:58:43.795Z,10.95
2018-03-27T15:01:17.467Z,11.20
2018-03-27T15:03:51.187Z,11.95
2018-03-27T15:06:24.776Z,10.85
2018-03-27T15:08:58.348Z,15.32
2018-03-27T15:11:32.717Z,9.85
2018-03-27T15:14:06.448Z,10.80
2018-03-27T15:16:40.002Z,12.95
2018-03-27T15:19:13.513Z,11.43
2018-03-27T15:21:47.134Z,11.20
2018-03-27T15:24:20.777Z,10.52
2018-03-27T15:26:54.413Z,10.20
2018-03-27T15:29:28.136Z,9.80
2018-03-27T15:32:01.693Z,10.10
2018-03-27T15:34:35.280Z,11.10
2018-03-27T15:37:08.821Z,9.57
2018-03-27T15:39:42.480Z,10.38
2018-03-27T15:42:15.939Z,10.07
2018-03-27T15:44:49.538Z,10.13
2018-03-27T15:47:23.099Z,10.82
2018-03-27T15:49:57.536Z,11.32
2018-03-27T15:52:31.114Z,10.93
2018-03-27T15:55:04.638Z,9.45
2018-03-27T15:57:38.150Z,10.20
2018-03-27T16:00:11.710Z,10.15
2018-03-27T16:02:45.444Z,10.23
2018-03-27T16:05:19.014Z,10.73
2018-03-27T16:07:52.614Z,11.00
2018-03-27T16:10:26.226Z,10.23
2018-03-27T16:12:59.812Z,10.07
2018-03-27T16:15:33.417Z,10.25
2018-03-27T16:18:07.021Z,10.80
2018-03-27T16:20:40.655Z,10.13
2018-03-27T16:23:14.233Z,10.43
2018-03-27T16:25:47.818Z,10.95
2018-03-27T16:28:21.424Z,11.82
2018-03-27T16:30:54.998Z,10.20
2018-03-27T16:33:28.494Z,10.05
2018-03-27T16:36:02.044Z,9.80
2018-03-27T16:38:35.630Z,10.68
2018-03-27T16:41:09.226Z,9.85
2018-03-27T16:43:42.758Z,10.60
2018-03-27T16:46:16.324Z,13.88
2018-03-27T16:48:49.985Z,10.05
2018-03-27T16:51:23.511Z,9.75
2018-03-27T16:53:57.844Z,10.25
2018-03-27T16:56:31.533Z,10.15
2018-03-27T16:59:05.250Z,10.43
2018-03-27T17:01:38.762Z,9.82
2018-03-27T17:04:13.076Z,10.63
2018-03-27T17:06:46.797Z,9.25
2018-03-27T17:09:23.187Z,8.95
2018-03-27T17:11:56.838Z,10.27
2018-03-27T17:14:30.432Z,8.95
2018-03-27T17:17:04.179Z,9.73
2018-03-27T17:19:37.719Z,8.05
2018-03-27T17:22:12.263Z,9.45
2018-03-27T17:24:46.014Z,9.50
2018-03-27T17:27:19.560Z,11.15
2018-03-27T17:29:53.887Z,10.57
2018-03-27T17:32:27.574Z,10.43
2018-03-27T17:35:01.190Z,11.07
2018-03-27T17:37:34.690Z,11.55
2018-03-27T17:40:09.007Z,17.77
2018-03-27T17:42:42.737Z,14.60
2018-03-27T17:45:16.400Z,12.25
2018-03-27T17:47:49.921Z,9.23
2018-03-27T17:50:23.644Z,8.35
2018-03-27T17:52:57.193Z,9.25
2018-03-27T17:55:31.527Z,11.12
2018-03-27T17:58:05.050Z,11.43
2018-03-27T18:00:39.347Z,14.02
2018-03-27T18:03:13.128Z,10.85
2018-03-27T18:05:46.803Z,11.48
2018-03-27T18:08:20.719Z,12.13
2018-03-27T18:10:54.975Z,12.73
2018-03-27T18:13:28.483Z,12.20
2018-03-27T18:16:02.062Z,11.43
2018-03-27T18:18:35.620Z,10.35
2018-03-27T18:21:09.281Z,11.32
2018-03-27T18:23:42.892Z,8.98
2018-03-27T18:26:16.530Z,12.00
2018-03-27T18:28:50.119Z,11.68
2018-03-27T18:31:23.695Z,10.02
2018-03-27T18:33:57.267Z,11.25
2018-03-27T18:36:31.599Z,13.15
2018-03-27T18:39:05.209Z,12.13
2018-03-27T18:41:38.791Z,14.50
2018-03-27T18:44:13.277Z,12.70
2018-03-27T18:46:46.856Z,13.70
2018-03-27T18:49:20.414Z,14.95
2018-03-27T18:51:53.933Z,16.08
2018-03-27T18:54:27.506Z,15.85
2018-03-27T18:57:01.844Z,16.37
2018-03-27T18:59:36.213Z,15.82
2018-03-27T19:02:09.866Z,15.90
2018-03-27T19:04:43.398Z,14.25
2018-03-27T19:07:16.939Z,16.02
2018-03-27T19:09:50.555Z,14.25
2018-03-27T19:12:27.218Z,15.02
2018-03-27T19:15:01.582Z,18.00
2018-03-27T19:17:35.279Z,15.82
2018-03-27T19:20:09.781Z,16.17
2018-03-27T19:22:43.557Z,13.85
2018-03-27T19:25:17.123Z,51.03
2018-03-27T19:27:50.794Z,27.30
2018-03-27T19:30:31.896Z,17.65
2018-03-27T19:33:06.174Z,15.45
2018-03-27T19:35:39.879Z,14.00
2018-03-27T19:38:13.461Z,14.75
2018-03-27T19:40:46.982Z,14.10
2018-03-27T19:43:20.607Z,14.57
2018-03-27T19:45:54.170Z,12.85
2018-03-27T19:48:27.896Z,12.15
2018-03-27T19:51:01.504Z,14.15
2018-03-27T19:53:35.142Z,14.75
2018-03-27T19:56:08.690Z,12.25
2018-03-27T19:58:43.001Z,16.02
2018-03-27T20:01:17.536Z,13.10
2018-03-27T20:03:51.126Z,11.75
2018-03-27T20:06:24.690Z,11.00
2018-03-27T20:08:59.047Z,11.82
2018-03-27T20:11:32.758Z,10.77
2018-03-27T20:14:06.342Z,12.45
2018-03-27T20:16:39.852Z,13.82
2018-03-27T20:19:13.444Z,12.00
2018-03-27T20:21:47.024Z,11.30
2018-03-27T20:24:20.641Z,12.88
2018-03-27T20:26:54.155Z,10.93
2018-03-27T20:29:27.731Z,11.55
2018-03-27T20:32:01.406Z,11.52
2018-03-27T20:34:35.018Z,11.88
2018-03-27T20:37:08.709Z,13.00
2018-03-27T20:39:42.479Z,13.07
2018-03-27T20:42:16.262Z,12.88
2018-03-27T20:44:49.980Z,12.57
2018-03-27T20:47:23.692Z,11.80
2018-03-27T20:49:57.982Z,12.20
2018-03-27T20:52:32.415Z,10.80
2018-03-27T20:55:06.125Z,10.00
2018-03-27T20:57:39.703Z,9.85
2018-03-27T21:00:13.314Z,10.38
2018-03-27T21:02:46.917Z,9.18
2018-03-27T21:05:20.490Z,7.47
2018-03-27T21:07:54.097Z,7.80
2018-03-27T21:10:28.413Z,11.02
2018-03-27T21:13:02.091Z,8.80
2018-03-27T21:15:36.658Z,7.78
2018-03-27T21:18:10.144Z,7.85
2018-03-27T21:20:43.650Z,7.05
2018-03-27T21:23:17.378Z,6.87
2018-03-27T21:25:50.958Z,10.07
2018-03-27T21:28:24.519Z,10.93
2018-03-27T21:30:58.832Z,7.50
2018-03-27T21:33:32.566Z,6.60
2018-03-27T21:36:06.161Z,7.57
2018-03-27T21:38:39.757Z,6.60
2018-03-27T21:41:13.354Z,7.75
2018-03-27T21:43:46.935Z,6.85
2018-03-27T21:46:20.745Z,7.12
2018-03-27T21:48:54.283Z,7.18
2018-03-27T21:51:27.897Z,8.38
2018-03-27T21:54:01.494Z,7.30
2018-03-27T21:56:35.060Z,7.20
2018-03-27T21:59:08.640Z,8.10
2018-03-27T22:01:42.221Z,7.93
2018-03-27T22:04:15.778Z,6.30
2018-03-27T22:06:50.311Z,6.35
2018-03-27T22:09:24.025Z,6.53
2018-03-27T22:11:58.500Z,7.93
2018-03-27T22:14:32.336Z,7.75
2018-03-27T22:17:06.077Z,7.05
2018-03-27T22:19:39.627Z,7.22
2018-03-27T22:22:13.379Z,8.02
2018-03-27T22:24:46.929Z,8.32
2018-03-27T22:27:20.511Z,9.48
2018-03-27T22:29:54.123Z,11.63
2018-03-27T22:32:27.658Z,8.98
2018-03-27T22:35:01.202Z,7.85
2018-03-27T22:37:34.950Z,8.88
2018-03-27T22:40:08.461Z,8.18
2018-03-27T22:42:42.027Z,9.30
2018-03-27T22:45:15.562Z,8.05
2018-03-27T22:47:49.268Z,8.73
2018-03-27T22:50:23.900Z,9.60
2018-03-27T22:52:57.489Z,9.07
2018-03-27T22:55:31.191Z,8.30
2018-03-27T22:58:05.673Z,9.25
2018-03-27T23:00:39.474Z,8.20
2018-03-27T23:03:12.985Z,8.57
2018-03-27T23:05:47.296Z,6.40
2018-03-27T23:08:21.021Z,7.05
2018-03-27T23:10:54.578Z,7.07
2018-03-27T23:13:29.176Z,7.43
2018-03-27T23:16:02.734Z,8.73
2018-03-27T23:18:36.238Z,8.38
2018-03-27T23:21:09.797Z,8.23
2018-03-27T23:23:43.432Z,8.75
2018-03-27T23:26:16.941Z,8.88
2018-03-27T23:28:50.434Z,9.00
2018-03-27T23:31:24.047Z,13.48
2018-03-27T23:33:57.593Z,9.60
2018-03-27T23:36:31.917Z,8.23
2018-03-27T23:39:06.368Z,9.13
2018-03-27T23:41:40.681Z,7.20
2018-03-27T23:44:15.146Z,9.20
2018-03-27T23:46:48.801Z,8.32
2018-03-27T23:49:23.155Z,9.23
2018-03-27T23:51:56.930Z,7.50
2018-03-27T23:54:30.498Z,9.10
2018-03-27T23:57:05.014Z,8.30
2018-03-27T23:59:38.513Z,8.98
